createdAt,value
2022-11-25T09:00:35.771Z,2.50
2022-11-25T09:33:20.133Z,3.90
2022-11-25T09:55:17.325Z,5.10
2022-11-25T10:00:15.310Z,5.40
2022-11-25T10:05:16.854Z,5.70
2022-11-25T10:10:23.479Z,6.00
2022-11-25T10:15:24.718Z,6.40
2022-11-25T10:20:23.762Z,6.80
2022-11-25T10:25:22.064Z,7.10
2022-11-25T10:30:19.929Z,7.50
2022-11-25T10:35:28.335Z,8.00
2022-11-25T10:40:24.017Z,8.50
2022-11-25T10:45:17.782Z,9.00
2022-11-25T10:50:19.045Z,9.40
2022-11-25T10:55:15.564Z,9.90
2022-11-25T11:00:29.649Z,10.30
2022-11-25T11:05:25.896Z,10.70
2022-11-25T11:10:22.853Z,11.10
2022-11-25T11:15:22.202Z,11.60
2022-11-25T11:20:23.424Z,12.10
2022-11-25T11:25:29.193Z,12.70
2022-11-25T11:30:29.803Z,13.50
2022-11-25T11:35:29.488Z,14.00
2022-11-25T11:40:33.841Z,14.30
2022-11-25T11:45:44.801Z,14.50
2022-11-25T11:50:42.317Z,14.70
2022-11-25T11:56:19.039Z,15.10
2022-11-25T12:01:26.667Z,15.10
2022-11-25T12:06:22.816Z,15.20
2022-11-25T12:11:20.437Z,15.10
2022-11-25T12:16:22.020Z,15.00
2022-11-25T12:21:27.848Z,14.10
2022-11-25T12:26:25.941Z,14.30
2022-11-25T12:31:26.466Z,15.00
2022-11-25T12:36:27.904Z,15.50
2022-11-25T12:41:27.126Z,15.80
2022-11-25T12:46:27.041Z,15.90
2022-11-25T12:51:35.569Z,16.10
2022-11-25T12:56:44.297Z,16.30
2022-11-25T13:02:07.807Z,16.40
2022-11-25T13:07:16.825Z,16.60
2022-11-25T13:12:23.572Z,17.00
2022-11-25T13:17:19.817Z,17.00
2022-11-25T13:22:29.955Z,17.40
2022-11-25T13:27:33.109Z,16.30
2022-11-25T13:32:37.396Z,14.80
2022-11-25T13:37:40.142Z,13.80
2022-11-25T13:42:33.752Z,13.00
2022-11-25T13:47:36.769Z,12.40
2022-11-25T13:52:38.189Z,12.10
2022-11-25T13:57:34.877Z,12.10
2022-11-25T14:02:46.291Z,11.70
2022-11-25T14:07:48.524Z,11.30
2022-11-25T14:13:04.192Z,10.90
2022-11-25T14:19:03.176Z,10.30
2022-11-25T14:24:06.410Z,9.70
2022-11-25T14:29:03.926Z,9.20
2022-11-25T14:34:05.115Z,8.80
2022-11-25T14:39:01.826Z,8.50
2022-11-25T14:43:59.785Z,8.20
2022-11-25T14:48:59.950Z,8.10
2022-11-25T14:53:54.726Z,7.90
2022-11-25T14:58:50.554Z,7.70
2022-11-25T15:03:44.496Z,7.50
2022-11-25T15:08:45.582Z,7.20
2022-11-25T15:13:42.367Z,7.10
2022-11-25T15:18:39.404Z,6.90
2022-11-25T15:23:36.455Z,6.80
2022-11-25T15:28:37.494Z,6.60
2022-11-25T15:33:32.221Z,6.50
2022-11-25T15:38:43.671Z,6.30
2022-11-25T15:43:42.305Z,6.10
2022-11-25T15:48:41.261Z,5.90
2022-11-25T15:53:39.331Z,5.60
2022-11-25T15:58:33.201Z,5.40
2022-11-25T16:03:28.492Z,5.40
2022-11-25T16:08:36.602Z,5.40
2022-11-25T16:13:36.688Z,5.30
2022-11-25T16:18:40.926Z,5.20
2022-11-25T16:23:36.801Z,5.10
2022-11-25T16:28:31.600Z,4.80
2022-11-25T16:33:26.069Z,4.80
2022-11-25T16:38:21.338Z,4.80
2022-11-25T16:43:21.558Z,4.80
2022-11-25T16:48:17.957Z,4.70
2022-11-25T16:53:11.993Z,4.70
2022-11-25T16:58:11.925Z,4.60
2022-11-25T17:03:10.922Z,4.50
2022-11-25T17:08:05.124Z,4.50
2022-11-25T17:12:58.937Z,4.50
2022-11-25T17:17:53.941Z,4.50
2022-11-25T17:22:47.430Z,4.50
